createdAt,value
2023-05-01T00:00:23.840Z,75.82
2023-05-01T00:02:53.116Z,75.76
2023-05-01T00:05:19.640Z,76.11
2023-05-01T00:07:46.128Z,75.92
2023-05-01T00:10:12.536Z,75.47
2023-05-01T00:12:38.980Z,75.17
2023-05-01T00:15:06.840Z,75.67
2023-05-01T00:17:33.343Z,75.75
2023-05-01T00:19:59.958Z,76.49
2023-05-01T00:22:26.751Z,75.87
2023-05-01T00:24:53.195Z,76.34
2023-05-01T00:27:19.596Z,76.95
2023-05-01T00:29:46.436Z,77.11
2023-05-01T00:32:12.947Z,77.01
2023-05-01T00:34:39.772Z,75.77
2023-05-01T00:37:06.199Z,76.38
2023-05-01T00:39:32.630Z,76.49
2023-05-01T00:41:59.073Z,76.39
2023-05-01T00:44:25.803Z,76.46
2023-05-01T00:46:52.223Z,76.07
2023-05-01T00:49:18.737Z,76.55
2023-05-01T00:51:49.450Z,77.07
2023-05-01T00:54:15.862Z,76.10
2023-05-01T00:56:42.809Z,76.99
2023-05-01T00:59:09.247Z,76.46
2023-05-01T01:01:35.843Z,76.07
2023-05-01T01:04:02.362Z,76.18
2023-05-01T01:06:37.784Z,77.31
2023-05-01T01:09:23.612Z,77.33
2023-05-01T01:12:07.531Z,77.40
2023-05-01T01:14:47.557Z,77.20
2023-05-01T01:17:21.161Z,77.02
2023-05-01T01:20:04.033Z,77.68
2023-05-01T01:22:31.920Z,77.13
2023-05-01T01:25:40.805Z,77.41
2023-05-01T01:28:34.603Z,78.93
2023-05-01T01:31:09.424Z,77.14
2023-05-01T01:33:44.825Z,76.77
2023-05-01T01:36:18.891Z,76.67
2023-05-01T01:39:03.664Z,77.94
2023-05-01T01:41:38.610Z,78.14
2023-05-01T01:44:29.855Z,77.82
2023-05-01T01:46:57.350Z,77.60
2023-05-01T01:49:27.641Z,78.42
2023-05-01T01:51:56.595Z,78.63
2023-05-01T01:54:33.445Z,78.56
2023-05-01T01:57:02.543Z,78.53
2023-05-01T01:59:32.954Z,78.94
2023-05-01T02:02:02.695Z,78.52
2023-05-01T02:04:31.492Z,78.69
2023-05-01T02:06:59.108Z,79.36
2023-05-01T02:09:28.061Z,78.71
2023-05-01T02:11:57.490Z,79.17
2023-05-01T02:14:26.901Z,78.72
2023-05-01T02:16:54.884Z,77.70
2023-05-01T02:19:21.525Z,78.30
2023-05-01T02:21:49.512Z,79.04
2023-05-01T02:24:18.255Z,78.71
2023-05-01T02:26:49.576Z,79.34
2023-05-01T02:29:16.078Z,79.79
2023-05-01T02:31:42.521Z,79.82
2023-05-01T02:34:09.308Z,79.34
2023-05-01T02:36:35.731Z,79.20
2023-05-01T02:39:02.339Z,80.62
2023-05-01T02:41:29.883Z,80.23
2023-05-01T02:44:01.782Z,79.58
2023-05-01T02:46:31.014Z,79.95
2023-05-01T02:49:01.645Z,80.71
2023-05-01T02:51:29.112Z,80.45
2023-05-01T02:53:56.300Z,80.25
2023-05-01T02:56:25.951Z,80.45
2023-05-01T02:58:53.656Z,80.89
2023-05-01T03:01:20.778Z,81.20
2023-05-01T03:03:47.825Z,81.72
2023-05-01T03:06:14.378Z,80.53
2023-05-01T03:08:40.987Z,80.70
2023-05-01T03:11:07.938Z,81.97
2023-05-01T03:13:35.183Z,81.83
2023-05-01T03:16:02.151Z,81.43
2023-05-01T03:18:28.595Z,82.91
2023-05-01T03:20:58.771Z,83.10
2023-05-01T03:23:27.963Z,82.91
2023-05-01T03:25:54.783Z,85.09
2023-05-01T03:28:23.497Z,83.16
2023-05-01T03:30:52.656Z,83.80
2023-05-01T03:33:19.344Z,83.05
2023-05-01T03:35:46.390Z,82.73
2023-05-01T03:38:13.454Z,84.59
2023-05-01T03:40:59.991Z,83.33
2023-05-01T03:43:52.687Z,82.37
2023-05-01T03:46:31.486Z,82.28
2023-05-01T03:48:58.031Z,82.51
2023-05-01T03:51:25.687Z,83.92
2023-05-01T03:53:56.624Z,84.08
2023-05-01T03:56:25.687Z,84.37
2023-05-01T03:58:54.848Z,83.07
2023-05-01T04:01:21.311Z,82.95
2023-05-01T04:03:48.325Z,84.46
2023-05-01T04:06:16.434Z,83.14
2023-05-01T04:08:43.159Z,85.32
2023-05-01T04:11:09.578Z,84.99
2023-05-01T04:13:36.073Z,85.39
2023-05-01T04:16:02.899Z,85.05
2023-05-01T04:18:29.367Z,85.74
2023-05-01T04:20:59.101Z,86.83
2023-05-01T04:23:25.691Z,85.55
2023-05-01T04:25:55.949Z,86.43
2023-05-01T04:28:22.447Z,86.11
2023-05-01T04:30:48.869Z,84.79
2023-05-01T04:33:15.713Z,86.21
2023-05-01T04:35:42.191Z,84.42
2023-05-01T04:38:10.395Z,84.08
2023-05-01T04:40:37.561Z,83.87
2023-05-01T04:43:04.285Z,82.72
2023-05-01T04:45:32.676Z,82.71
2023-05-01T04:47:59.864Z,83.27
2023-05-01T04:50:26.754Z,81.33
2023-05-01T04:52:53.251Z,79.90
2023-05-01T04:55:19.687Z,78.70
2023-05-01T04:58:10.433Z,77.72
2023-05-01T05:00:36.954Z,75.61
2023-05-01T05:03:06.727Z,74.47
2023-05-01T05:05:33.294Z,73.31
2023-05-01T05:08:00.213Z,73.47
2023-05-01T05:10:49.053Z,71.26
2023-05-01T05:13:35.769Z,70.58
2023-05-01T05:16:09.076Z,71.69
2023-05-01T05:18:35.530Z,68.65
2023-05-01T05:21:06.403Z,67.65
2023-05-01T05:23:32.899Z,66.72
2023-05-01T05:26:01.621Z,66.92
2023-05-01T05:28:28.480Z,66.71
2023-05-01T05:30:55.919Z,64.61
2023-05-01T05:33:24.987Z,64.40
2023-05-01T05:35:52.763Z,63.44
2023-05-01T05:38:22.466Z,60.60
2023-05-01T05:40:54.149Z,62.51
2023-05-01T05:43:21.225Z,60.76
2023-05-01T05:45:47.688Z,60.32
2023-05-01T05:48:14.316Z,58.83
2023-05-01T05:50:41.241Z,57.83
2023-05-01T05:53:09.852Z,56.77
2023-05-01T05:55:37.001Z,56.91
2023-05-01T05:58:05.703Z,56.23
2023-05-01T06:00:32.329Z,54.34
2023-05-01T06:03:03.905Z,53.60
2023-05-01T06:05:31.275Z,53.04
2023-05-01T06:07:57.762Z,53.57
2023-05-01T06:10:24.258Z,51.80
2023-05-01T06:12:54.912Z,51.75
2023-05-01T06:15:38.228Z,51.25
2023-05-01T06:18:05.565Z,51.03
2023-05-01T06:20:32.248Z,50.66
2023-05-01T06:22:58.734Z,49.83
2023-05-01T06:25:37.988Z,50.25
2023-05-01T06:28:04.550Z,49.93
2023-05-01T06:30:32.682Z,49.79
2023-05-01T06:32:59.201Z,49.35
2023-05-01T06:35:25.729Z,48.59
2023-05-01T06:37:52.148Z,48.98
2023-05-01T06:40:19.247Z,48.60
2023-05-01T06:42:45.745Z,48.20
2023-05-01T06:45:12.175Z,47.73
2023-05-01T06:47:38.646Z,48.79
2023-05-01T06:50:06.023Z,48.48
2023-05-01T06:52:33.227Z,47.37
2023-05-01T06:54:59.716Z,47.78
2023-05-01T06:57:26.160Z,47.54
2023-05-01T06:59:52.586Z,47.56
2023-05-01T07:02:19.071Z,47.14
2023-05-01T07:04:45.584Z,47.08
2023-05-01T07:07:12.039Z,47.35
2023-05-01T07:09:38.753Z,46.03
2023-05-01T07:12:06.743Z,46.76
2023-05-01T07:14:34.812Z,46.81
2023-05-01T07:17:02.256Z,46.33
2023-05-01T07:19:28.867Z,46.40
2023-05-01T07:21:55.280Z,46.14
2023-05-01T07:24:21.690Z,45.53
2023-05-01T07:26:48.090Z,46.11
2023-05-01T07:29:16.425Z,46.00
2023-05-01T07:31:43.372Z,45.76
2023-05-01T07:34:10.187Z,45.39
2023-05-01T07:36:36.589Z,45.96
2023-05-01T07:39:03.841Z,45.88
2023-05-01T07:41:31.206Z,46.27
2023-05-01T07:44:00.862Z,46.51
2023-05-01T07:46:27.374Z,46.68
2023-05-01T07:48:53.897Z,46.62
2023-05-01T07:51:20.334Z,46.65
2023-05-01T07:53:47.385Z,45.76
2023-05-01T07:56:13.786Z,45.38
2023-05-01T07:58:42.487Z,45.39
2023-05-01T08:01:09.229Z,45.53
2023-05-01T08:03:35.981Z,45.27
2023-05-01T08:06:02.507Z,45.18
2023-05-01T08:08:28.966Z,45.08
2023-05-01T08:10:55.394Z,44.76
2023-05-01T08:13:21.940Z,44.67
2023-05-01T08:15:49.548Z,44.65
2023-05-01T08:18:20.348Z,43.97
2023-05-01T08:20:48.184Z,43.90
2023-05-01T08:23:15.852Z,44.66
2023-05-01T08:25:42.345Z,43.03
2023-05-01T08:28:09.416Z,43.49
2023-05-01T08:30:35.843Z,42.65
2023-05-01T08:33:02.326Z,43.02
2023-05-01T08:35:29.373Z,42.44
2023-05-01T08:37:55.843Z,43.71
2023-05-01T08:40:23.977Z,42.49
2023-05-01T08:42:51.227Z,43.16
2023-05-01T08:45:19.838Z,42.50
2023-05-01T08:47:47.971Z,42.56
2023-05-01T08:50:16.390Z,42.05
2023-05-01T08:52:44.102Z,42.76
2023-05-01T08:55:15.119Z,42.59
2023-05-01T08:57:46.536Z,41.55
2023-05-01T09:00:20.919Z,41.97
2023-05-01T09:02:49.359Z,42.00
2023-05-01T09:05:17.256Z,41.49
2023-05-01T09:07:46.004Z,41.80
2023-05-01T09:10:14.085Z,40.93
2023-05-01T09:12:41.981Z,41.16
2023-05-01T09:15:09.634Z,40.62
2023-05-01T09:17:36.896Z,40.68
2023-05-01T09:20:07.711Z,40.61
2023-05-01T09:22:34.860Z,40.68
2023-05-01T09:25:02.092Z,40.33
2023-05-01T09:27:29.700Z,40.62
2023-05-01T09:29:56.425Z,40.09
2023-05-01T09:32:25.781Z,40.32
2023-05-01T09:34:52.890Z,40.16
2023-05-01T09:37:30.850Z,38.98
2023-05-01T09:40:10.597Z,39.25
2023-05-01T09:42:49.500Z,39.83
2023-05-01T09:45:16.168Z,39.65
2023-05-01T09:47:46.640Z,39.32
2023-05-01T09:50:34.351Z,39.04
2023-05-01T09:53:06.404Z,39.11
2023-05-01T09:55:33.734Z,38.83
2023-05-01T09:58:00.464Z,39.42
2023-05-01T10:00:27.139Z,39.43
2023-05-01T10:02:54.009Z,38.74
2023-05-01T10:05:20.544Z,38.45
2023-05-01T10:07:58.987Z,38.93
2023-05-01T10:10:25.728Z,39.08
2023-05-01T10:12:52.288Z,38.93
2023-05-01T10:15:25.272Z,38.48
2023-05-01T10:17:53.651Z,38.90
2023-05-01T10:20:20.332Z,38.23
2023-05-01T10:22:47.195Z,38.33
2023-05-01T10:25:14.047Z,38.71
2023-05-01T10:27:41.165Z,38.34
2023-05-01T10:30:09.431Z,38.42
2023-05-01T10:32:37.788Z,38.53
2023-05-01T10:35:11.269Z,38.81
2023-05-01T10:37:48.592Z,38.88
2023-05-01T10:40:40.217Z,38.48
2023-05-01T10:43:13.432Z,38.46
2023-05-01T10:45:39.856Z,38.64
2023-05-01T10:48:06.301Z,39.34
2023-05-01T10:50:34.663Z,38.42
2023-05-01T10:53:09.975Z,37.82
2023-05-01T10:55:37.828Z,38.35
2023-05-01T10:58:04.456Z,38.36
2023-05-01T11:00:32.459Z,38.66
2023-05-01T11:03:23.471Z,38.54
2023-05-01T11:06:03.990Z,39.41
2023-05-01T11:08:38.291Z,39.66
2023-05-01T11:11:19.991Z,39.05
2023-05-01T11:14:05.935Z,38.81
2023-05-01T11:16:44.190Z,39.31
2023-05-01T11:19:22.694Z,39.07
2023-05-01T11:21:50.521Z,38.83
2023-05-01T11:24:19.666Z,38.97
2023-05-01T11:26:47.276Z,39.04
2023-05-01T11:59:46.110Z,38.04
2023-05-01T12:02:19.866Z,37.62
2023-05-01T12:04:46.878Z,37.35
2023-05-01T12:07:23.313Z,37.32
2023-05-01T12:09:51.323Z,37.23
2023-05-01T12:12:18.111Z,36.01
2023-05-01T12:14:44.716Z,36.38
2023-05-01T12:17:12.274Z,35.58
2023-05-01T12:19:48.878Z,35.70
2023-05-01T12:22:15.383Z,36.67
2023-05-01T12:24:55.207Z,36.80
2023-05-01T12:27:21.726Z,36.02
2023-05-01T12:29:48.310Z,36.95
2023-05-01T12:32:15.549Z,37.40
2023-05-01T12:34:42.103Z,37.27
2023-05-01T12:37:09.845Z,37.23
2023-05-01T12:39:38.657Z,37.29
2023-05-01T12:42:13.053Z,37.31
2023-05-01T12:44:39.547Z,37.86
2023-05-01T12:47:07.924Z,36.94
2023-05-01T12:49:38.391Z,37.23
2023-05-01T12:52:07.193Z,37.43
2023-05-01T12:54:37.754Z,37.84
2023-05-01T12:57:15.380Z,36.81
2023-05-01T12:59:44.233Z,37.23
2023-05-01T13:02:12.779Z,37.26
2023-05-01T13:04:39.967Z,37.63
2023-05-01T13:07:15.073Z,37.14
2023-05-01T13:09:55.282Z,37.83
2023-05-01T13:12:22.652Z,38.15
2023-05-01T13:14:50.059Z,38.01
2023-05-01T13:17:29.375Z,37.44
2023-05-01T13:19:56.949Z,37.42
2023-05-01T13:22:33.371Z,35.99
2023-05-01T13:25:01.355Z,36.77
2023-05-01T13:27:28.700Z,36.31
2023-05-01T13:29:58.110Z,36.44
2023-05-01T13:32:27.865Z,35.98
2023-05-01T13:34:54.398Z,37.24
2023-05-01T13:37:21.366Z,36.67
2023-05-01T13:39:48.244Z,36.95
2023-05-01T13:42:32.565Z,37.07
2023-05-01T13:44:58.998Z,37.34
2023-05-01T13:47:27.444Z,36.70
2023-05-01T13:49:54.098Z,36.50
2023-05-01T13:52:20.834Z,35.61
2023-05-01T13:54:48.462Z,34.32
2023-05-01T13:57:16.087Z,34.43
2023-05-01T13:59:44.530Z,34.52
2023-05-01T14:02:20.287Z,34.50
2023-05-01T14:04:47.230Z,35.08
2023-05-01T14:07:23.152Z,35.30
2023-05-01T14:09:57.599Z,35.97
2023-05-01T14:12:29.465Z,35.61
2023-05-01T14:14:56.461Z,35.31
2023-05-01T14:17:41.244Z,35.33
2023-05-01T14:20:08.707Z,34.32
2023-05-01T14:22:46.826Z,34.31
2023-05-01T14:25:34.752Z,34.06
2023-05-01T14:28:05.466Z,34.67
2023-05-01T14:30:33.756Z,35.10
2023-05-01T14:33:05.060Z,35.79
2023-05-01T14:35:31.957Z,35.20
2023-05-01T14:38:07.921Z,34.98
2023-05-01T14:40:34.656Z,34.81
2023-05-01T14:43:01.503Z,34.69
2023-05-01T14:45:28.065Z,35.16
2023-05-01T14:47:54.563Z,35.30
2023-05-01T14:50:24.945Z,34.26
2023-05-01T14:52:59.834Z,35.12
2023-05-01T14:55:29.281Z,35.14
2023-05-01T14:57:56.909Z,35.16
2023-05-01T15:00:24.370Z,34.71
2023-05-01T15:02:51.125Z,34.80
2023-05-01T15:05:17.903Z,35.56
2023-05-01T15:07:44.517Z,35.84
2023-05-01T15:10:11.064Z,35.61
2023-05-01T15:12:37.476Z,35.34
2023-05-01T15:15:04.370Z,35.57
2023-05-01T15:17:32.452Z,35.68
2023-05-01T15:19:59.065Z,35.58
2023-05-01T15:22:25.561Z,35.20
2023-05-01T15:24:52.077Z,35.60
2023-05-01T15:27:18.511Z,35.95
2023-05-01T15:29:44.925Z,36.39
2023-05-01T15:32:12.756Z,36.58
2023-05-01T15:34:40.082Z,36.86
2023-05-01T15:37:06.649Z,36.39
2023-05-01T15:39:33.422Z,36.61
2023-05-01T15:42:00.871Z,35.96
2023-05-01T15:44:28.655Z,36.18
2023-05-01T15:46:55.275Z,36.03
2023-05-01T15:49:21.836Z,36.02
2023-05-01T15:51:48.241Z,36.95
2023-05-01T15:54:14.643Z,36.77
2023-05-01T15:56:41.087Z,36.72
2023-05-01T15:59:08.145Z,36.91
2023-05-01T16:01:35.499Z,36.63
2023-05-01T16:04:03.358Z,36.63
2023-05-01T16:06:31.380Z,36.98
2023-05-01T16:08:59.277Z,36.65
2023-05-01T16:11:25.719Z,36.48
2023-05-01T16:13:54.024Z,36.88
2023-05-01T16:16:25.590Z,37.02
2023-05-01T16:18:55.374Z,36.87
2023-05-01T16:21:22.965Z,36.51
2023-05-01T16:23:50.955Z,37.12
2023-05-01T16:26:28.435Z,37.05
2023-05-01T16:29:02.148Z,36.45
2023-05-01T16:31:37.582Z,36.36
2023-05-01T16:34:06.385Z,36.84
2023-05-01T16:36:36.728Z,36.63
2023-05-01T16:39:04.068Z,36.98
2023-05-01T16:41:30.526Z,36.96
2023-05-01T16:43:59.949Z,38.01
2023-05-01T16:46:26.494Z,37.64
2023-05-01T16:48:53.113Z,37.47
2023-05-01T16:51:19.999Z,37.48
2023-05-01T16:53:46.463Z,37.88
2023-05-01T16:56:12.899Z,38.19
2023-05-01T16:58:39.342Z,37.96
2023-05-01T17:01:05.884Z,38.45
2023-05-01T17:03:32.447Z,38.51
2023-05-01T17:05:59.087Z,38.24
2023-05-01T17:08:26.011Z,38.42
2023-05-01T17:10:52.433Z,38.19
2023-05-01T17:13:19.502Z,38.68
2023-05-01T17:15:45.917Z,38.82
2023-05-01T17:18:12.478Z,39.25
2023-05-01T17:20:38.968Z,38.94
2023-05-01T17:23:05.493Z,39.06
2023-05-01T17:25:32.002Z,39.50
2023-05-01T17:27:59.179Z,40.15
2023-05-01T17:30:25.617Z,40.03
2023-05-01T17:32:52.646Z,40.68
2023-05-01T17:35:19.209Z,42.20
2023-05-01T17:37:45.793Z,42.12
2023-05-01T17:40:12.402Z,42.12
2023-05-01T17:42:39.026Z,41.78
2023-05-01T17:45:07.447Z,43.58
2023-05-01T17:47:34.608Z,44.34
2023-05-01T17:50:04.802Z,45.60
2023-05-01T17:52:32.037Z,45.80
2023-05-01T17:54:59.040Z,46.42
2023-05-01T17:57:25.770Z,46.46
2023-05-01T17:59:52.583Z,46.54
2023-05-01T18:02:19.156Z,47.88
2023-05-01T18:04:49.630Z,47.66
2023-05-01T18:07:16.370Z,48.95
2023-05-01T18:09:43.115Z,49.60
2023-05-01T18:12:10.276Z,50.19
2023-05-01T18:14:37.121Z,50.44
2023-05-01T18:17:03.658Z,50.80
2023-05-01T18:19:34.132Z,51.66
2023-05-01T18:22:00.963Z,51.95
2023-05-01T18:24:27.410Z,52.70
2023-05-01T18:26:53.819Z,52.10
2023-05-01T18:29:22.641Z,51.92
2023-05-01T18:31:50.938Z,51.70
2023-05-01T18:34:19.100Z,53.50
2023-05-01T18:36:48.449Z,52.43
2023-05-01T18:39:14.874Z,53.00
2023-05-01T18:41:41.492Z,52.70
2023-05-01T18:44:07.894Z,53.60
2023-05-01T18:46:34.403Z,54.40
2023-05-01T18:49:01.289Z,54.71
2023-05-01T18:51:27.749Z,55.64
2023-05-01T18:53:54.593Z,55.53
2023-05-01T18:56:21.986Z,55.57
2023-05-01T18:58:48.438Z,56.36
2023-05-01T19:01:14.873Z,56.33
2023-05-01T19:03:41.321Z,55.72
2023-05-01T19:06:10.335Z,55.09
2023-05-01T19:08:37.062Z,54.96
2023-05-01T19:11:04.725Z,55.25
2023-05-01T19:13:32.310Z,56.74
2023-05-01T19:15:58.802Z,57.04
2023-05-01T19:18:25.833Z,57.67
2023-05-01T19:20:52.239Z,59.02
2023-05-01T19:23:18.686Z,58.55
2023-05-01T19:25:45.140Z,58.35
2023-05-01T19:28:11.561Z,59.05
2023-05-01T19:30:37.978Z,59.75
2023-05-01T19:33:04.540Z,60.25
2023-05-01T19:35:31.008Z,59.85
2023-05-01T19:37:58.314Z,60.78
2023-05-01T19:40:24.864Z,61.32
2023-05-01T19:42:51.530Z,61.38
2023-05-01T19:45:18.169Z,60.74
2023-05-01T19:47:45.802Z,61.82
2023-05-01T19:50:12.400Z,62.02
2023-05-01T19:52:38.838Z,62.07
2023-05-01T19:55:05.597Z,61.51
2023-05-01T19:57:32.154Z,61.92
2023-05-01T19:59:59.114Z,62.77
2023-05-01T20:02:25.814Z,61.87
2023-05-01T20:04:52.373Z,61.30
2023-05-01T20:07:18.862Z,62.23
2023-05-01T20:09:45.303Z,62.26
2023-05-01T20:12:12.066Z,62.03
2023-05-01T20:14:38.468Z,61.69
2023-05-01T20:17:07.058Z,62.46
2023-05-01T20:19:33.770Z,62.96
2023-05-01T20:22:00.164Z,63.16
2023-05-01T20:24:26.633Z,63.18
2023-05-01T20:26:55.571Z,63.59
2023-05-01T20:29:21.999Z,63.64
2023-05-01T20:31:49.037Z,64.58
2023-05-01T20:34:15.556Z,65.02
2023-05-01T20:36:42.302Z,65.69
2023-05-01T20:39:08.778Z,66.08
2023-05-01T20:41:35.181Z,66.17
2023-05-01T20:44:02.320Z,67.48
2023-05-01T20:46:29.036Z,67.56
2023-05-01T20:48:55.962Z,67.69
2023-05-01T20:51:22.448Z,67.96
2023-05-01T20:53:48.910Z,67.94
2023-05-01T20:56:15.359Z,68.61
2023-05-01T20:58:41.791Z,68.11
2023-05-01T21:01:08.329Z,67.50
2023-05-01T21:03:34.878Z,67.47
2023-05-01T21:06:01.921Z,67.48
2023-05-01T21:08:28.925Z,68.40
2023-05-01T21:10:55.634Z,68.89
2023-05-01T21:13:24.633Z,69.44
2023-05-01T21:15:52.255Z,69.51
2023-05-01T21:18:20.350Z,70.01
2023-05-01T21:20:48.630Z,69.45
2023-05-01T21:23:16.067Z,69.85
2023-05-01T21:25:42.764Z,70.41
2023-05-01T21:28:13.648Z,70.23
2023-05-01T21:30:40.548Z,70.11
2023-05-01T21:33:14.328Z,71.71
2023-05-01T21:35:42.878Z,71.13
2023-05-01T21:38:09.811Z,71.16
2023-05-01T21:40:38.124Z,70.51
2023-05-01T21:43:05.845Z,70.37
2023-05-01T21:45:34.280Z,70.32
2023-05-01T21:48:00.781Z,69.99
2023-05-01T21:50:33.676Z,69.49
2023-05-01T21:53:00.180Z,69.36
2023-05-01T21:55:26.591Z,69.13
2023-05-01T21:57:53.359Z,69.29
2023-05-01T22:00:20.943Z,69.68
2023-05-01T22:02:49.631Z,71.02
2023-05-01T22:05:18.250Z,71.34
2023-05-01T22:07:46.213Z,71.60
2023-05-01T22:10:15.590Z,71.23
2023-05-01T22:12:42.856Z,70.38
2023-05-01T22:15:10.953Z,69.39
2023-05-01T22:17:38.484Z,63.19
2023-05-01T22:20:07.112Z,64.81
2023-05-01T22:22:34.450Z,60.65
2023-05-01T22:25:00.886Z,57.89
2023-05-01T22:27:27.321Z,57.21
2023-05-01T22:29:53.947Z,55.94
2023-05-01T22:32:20.749Z,53.73
2023-05-01T22:34:47.423Z,53.50
2023-05-01T22:37:13.948Z,53.21
2023-05-01T22:39:40.346Z,52.25
2023-05-01T22:42:06.782Z,52.11
2023-05-01T22:44:33.313Z,52.30
2023-05-01T22:46:59.710Z,52.66
2023-05-01T22:49:28.500Z,53.11
2023-05-01T22:51:55.502Z,51.78
2023-05-01T22:54:22.121Z,51.65
2023-05-01T22:56:49.895Z,51.60
2023-05-01T22:59:16.921Z,51.36
2023-05-01T23:01:44.537Z,51.17
2023-05-01T23:04:11.590Z,50.42
2023-05-01T23:06:38.250Z,50.16
2023-05-01T23:09:04.685Z,50.94
2023-05-01T23:11:32.524Z,49.58
2023-05-01T23:13:59.662Z,49.45
2023-05-01T23:16:26.419Z,49.71
2023-05-01T23:18:52.968Z,49.67
2023-05-01T23:21:19.705Z,49.62
2023-05-01T23:23:47.028Z,49.31
2023-05-01T23:26:25.452Z,49.61
2023-05-01T23:28:53.071Z,50.91
2023-05-01T23:31:27.497Z,50.06
2023-05-01T23:33:55.271Z,50.38
2023-05-01T23:36:22.264Z,49.96
2023-05-01T23:38:48.712Z,50.48
2023-05-01T23:41:15.406Z,50.65
2023-05-01T23:43:42.490Z,50.91
2023-05-01T23:46:08.901Z,50.78
2023-05-01T23:48:36.151Z,51.56
2023-05-01T23:51:03.213Z,52.37
2023-05-01T23:53:30.458Z,51.95
2023-05-01T23:55:57.148Z,50.97
2023-05-01T23:58:23.772Z,50.87
